Time;durP1;ratioP1;P1;durP2;ratioP2;P2;SDS_P1;SDS_P2;PMS_P1;PMS_P2;Temp;Humidity;BMP_temperature;BMP_pressure;BME280_temperature;BME280_humidity;BME280_pressure;Samples;Min_cycle;Max_cycle;Signal;HPM_P1;HPM_P2
2023/02/18 00:01:21;;;;;;;10.43;7.65;;;;;;;;;;5118713;27;20030;-74
2023/02/18 00:03:47;;;;;;;15.07;9.48;;;;;;;;;;5118405;27;20381;-73
2023/02/18 00:06:21;;;;;;;15.85;11.57;;;;;;;;;;5123218;27;20072;-76
2023/02/18 00:08:47;;;;;;;15.68;9.93;;;;;;;;;;5121363;27;20534;-76
2023/02/18 00:11:14;;;;;;;13.25;9.73;;;;;;;;;;5121224;27;20096;-71
2023/02/18 00:13:40;;;;;;;11.35;9.48;;;;;;;;;;5116306;27;20059;-75
2023/02/18 00:16:08;;;;;;;14.32;10.40;;;;;;;;;;5118902;27;20040;-72
2023/02/18 00:18:34;;;;;;;15.82;10.13;;;;;;;;;;5126053;27;20102;-74
2023/02/18 00:21:02;;;;;;;17.17;9.35;;;;;;;;;;5115912;27;20035;-75
2023/02/18 00:23:28;;;;;;;12.55;9.30;;;;;;;;;;5120567;27;20111;-72
2023/02/18 00:26:00;;;;;;;9.75;8.18;;;;;;;;;;5120472;27;20101;-71
2023/02/18 00:28:26;;;;;;;;;;;;;;;;;;5120816;27;20468;-73
2023/02/18 00:30:53;;;;;;;12.50;8.38;;;;;;;;;;5125653;27;19903;-74
2023/02/18 00:33:19;;;;;;;11.30;6.50;;;;;;;;;;5123110;27;20019;-71
2023/02/18 00:35:45;;;;;;;11.90;7.35;;;;;;;;;;5126086;27;20034;-71
2023/02/18 00:38:11;;;;;;;10.18;7.60;;;;;;;;;;5122202;27;20023;-72
2023/02/18 00:40:38;;;;;;;9.60;7.43;;;;;;;;;;5126761;27;20893;-71
2023/02/18 00:43:04;;;;;;;10.23;7.72;;;;;;;;;;5123570;27;20210;-71
2023/02/18 00:45:30;;;;;;;8.98;6.68;;;;;;;;;;5121923;27;20027;-71
2023/02/18 00:47:56;;;;;;;8.55;5.05;;;;;;;;;;5125423;27;20019;-71
2023/02/18 00:50:23;;;;;;;4.50;4.00;;;;;;;;;;5127912;27;20027;-71
2023/02/18 00:52:49;;;;;;;5.88;4.63;;;;;;;;;;5134558;27;20054;-71
2023/02/18 00:55:15;;;;;;;5.85;4.00;;;;;;;;;;5129078;27;20068;-71
2023/02/18 00:57:41;;;;;;;5.82;4.45;;;;;;;;;;5132070;27;20115;-70
2023/02/18 01:00:08;;;;;;;11.65;8.63;;;;;;;;;;5126761;27;20019;-71
2023/02/18 01:02:34;;;;;;;7.00;5.28;;;;;;;;;;5126692;27;20063;-70
2023/02/18 01:05:01;;;;;;;4.72;4.20;;;;;;;;;;5127770;27;20015;-72
2023/02/18 01:07:27;;;;;;;6.13;4.30;;;;;;;;;;5111039;27;20019;-71
2023/02/18 01:09:53;;;;;;;5.43;4.25;;;;;;;;;;5127096;27;20033;-71
2023/02/18 01:12:19;;;;;;;4.72;4.22;;;;;;;;;;5126434;27;20025;-71
2023/02/18 01:14:45;;;;;;;5.75;4.05;;;;;;;;;;5123984;27;20027;-71
2023/02/18 01:17:11;;;;;;;5.93;4.63;;;;;;;;;;5125646;27;20030;-71
2023/02/18 01:19:38;;;;;;;6.53;4.53;;;;;;;;;;5125798;27;20015;-70
2023/02/18 01:22:05;;;;;;;5.32;4.05;;;;;;;;;;5132699;27;20103;-73
2023/02/18 01:24:31;;;;;;;5.18;4.13;;;;;;;;;;5128979;27;20476;-71
2023/02/18 01:26:58;;;;;;;5.57;3.92;;;;;;;;;;5124404;27;20023;-71
2023/02/18 01:29:24;;;;;;;5.40;4.15;;;;;;;;;;5128989;27;20027;-70
2023/02/18 01:31:50;;;;;;;15.35;10.82;;;;;;;;;;5126611;27;20027;-70
2023/02/18 01:34:16;;;;;;;16.63;11.63;;;;;;;;;;5127998;27;20293;-73
2023/02/18 01:36:42;;;;;;;13.85;8.10;;;;;;;;;;5121518;27;20027;-71
2023/02/18 01:39:09;;;;;;;6.35;4.78;;;;;;;;;;5126282;27;20062;-71
2023/02/18 01:41:35;;;;;;;7.13;4.28;;;;;;;;;;5124934;27;20075;-74
2023/02/18 01:44:17;;;;;;;6.22;3.95;;;;;;;;;;5124756;27;20026;-71
2023/02/18 01:46:44;;;;;;;7.15;4.65;;;;;;;;;;5124401;27;20037;-70
2023/02/18 01:49:10;;;;;;;6.07;3.95;;;;;;;;;;5128670;27;20015;-71
2023/02/18 01:51:38;;;;;;;5.25;3.70;;;;;;;;;;5128017;27;20075;-73
2023/02/18 01:54:16;;;;;;;5.13;3.67;;;;;;;;;;5131170;27;20618;-72
2023/02/18 01:56:43;;;;;;;8.27;4.22;;;;;;;;;;5130112;27;20119;-71
2023/02/18 01:59:23;;;;;;;5.93;4.40;;;;;;;;;;5129198;27;20026;-71
2023/02/18 02:01:49;;;;;;;10.57;7.50;;;;;;;;;;5124902;27;20038;-70
2023/02/18 02:04:16;;;;;;;9.82;6.50;;;;;;;;;;5131053;27;20058;-73
2023/02/18 02:06:42;;;;;;;5.85;4.60;;;;;;;;;;5123561;27;20015;-71
2023/02/18 02:09:09;;;;;;;8.20;6.13;;;;;;;;;;5121253;27;20537;-72
2023/02/18 02:11:54;;;;;;;16.98;9.27;;;;;;;;;;5126570;27;20027;-72
2023/02/18 02:14:20;;;;;;;14.50;9.50;;;;;;;;;;5128655;27;20025;-70
2023/02/18 02:16:49;;;;;;;15.00;9.13;;;;;;;;;;5134005;27;20055;-71
2023/02/18 02:19:31;;;;;;;14.93;10.32;;;;;;;;;;5128342;27;20063;-71
2023/02/18 02:22:06;;;;;;;7.78;5.47;;;;;;;;;;5123582;27;20571;-70
2023/02/18 02:24:44;;;;;;;10.75;8.70;;;;;;;;;;5128163;27;20030;-71
2023/02/18 02:27:23;;;;;;;21.23;12.48;;;;;;;;;;5124504;27;20026;-71
2023/02/18 02:30:20;;;;;;;18.73;13.35;;;;;;;;;;5121515;27;20064;-70
2023/02/18 02:32:58;;;;;;;15.82;11.93;;;;;;;;;;5126315;27;20023;-70
2023/02/18 02:35:26;;;;;;;16.23;9.75;;;;;;;;;;5123932;27;20034;-71
2023/02/18 02:38:05;;;;;;;10.00;6.80;;;;;;;;;;5124458;27;20023;-71
2023/02/18 02:40:31;;;;;;;9.35;5.22;;;;;;;;;;5127456;27;20007;-70
2023/02/18 02:43:08;;;;;;;6.97;4.60;;;;;;;;;;5123877;27;20015;-71
2023/02/18 02:45:44;;;;;;;5.40;4.22;;;;;;;;;;5123983;27;20034;-74
2023/02/18 02:48:10;;;;;;;6.95;4.35;;;;;;;;;;5128320;27;20034;-71
2023/02/18 02:50:36;;;;;;;7.18;4.43;;;;;;;;;;5127024;27;20026;-73
2023/02/18 02:53:09;;;;;;;5.18;4.30;;;;;;;;;;5126719;27;20023;-70
2023/02/18 02:55:35;;;;;;;11.05;8.35;;;;;;;;;;5123963;27;20405;-71
2023/02/18 02:58:01;;;;;;;15.68;10.52;;;;;;;;;;5125638;27;21311;-72
2023/02/18 03:00:43;;;;;;;14.65;10.32;;;;;;;;;;5124628;27;20014;-71
2023/02/18 03:03:09;;;;;;;11.50;8.73;;;;;;;;;;5121040;27;20474;-72
2023/02/18 03:05:54;;;;;;;11.45;8.20;;;;;;;;;;5117151;27;20129;-72
2023/02/18 03:08:20;;;;;;;12.38;7.65;;;;;;;;;;5120118;27;20081;-73
2023/02/18 03:10:46;;;;;;;8.48;5.90;;;;;;;;;;5114124;27;20016;-72
2023/02/18 03:13:31;;;;;;;8.70;5.43;;;;;;;;;;5121677;27;20110;-73
2023/02/18 03:16:06;;;;;;;6.88;4.78;;;;;;;;;;5112785;27;20039;-71
2023/02/18 03:18:35;;;;;;;7.93;5.15;;;;;;;;;;5119537;27;20026;-71
2023/02/18 03:21:25;;;;;;;6.70;4.55;;;;;;;;;;5115135;27;20019;-71
2023/02/18 03:24:11;;;;;;;5.78;4.28;;;;;;;;;;5114145;27;20035;-72
2023/02/18 03:26:39;;;;;;;5.65;4.25;;;;;;;;;;5072013;28;20032;-70
2023/02/18 03:29:06;;;;;;;5.57;4.10;;;;;;;;;;5112607;27;20043;-72
2023/02/18 03:31:34;;;;;;;5.68;4.20;;;;;;;;;;5123181;27;20052;-70
2023/02/18 03:34:06;;;;;;;6.13;4.50;;;;;;;;;;5109090;27;20037;-70
2023/02/18 03:36:34;;;;;;;5.57;3.58;;;;;;;;;;5109014;27;20038;-71
2023/02/18 03:39:04;;;;;;;6.55;4.10;;;;;;;;;;5121930;27;20511;-71
2023/02/18 03:41:31;;;;;;;5.03;3.70;;;;;;;;;;5126620;27;20359;-71
2023/02/18 03:44:02;;;;;;;5.43;4.22;;;;;;;;;;5116239;27;20383;-72
2023/02/18 03:46:28;;;;;;;6.18;3.95;;;;;;;;;;5126283;27;20229;-71
2023/02/18 03:48:54;;;;;;;5.10;3.88;;;;;;;;;;5124233;27;20023;-72
2023/02/18 03:51:21;;;;;;;6.55;4.10;;;;;;;;;;5124227;27;20052;-71
2023/02/18 03:53:47;;;;;;;4.40;3.80;;;;;;;;;;5126310;27;20046;-70
2023/02/18 03:56:15;;;;;;;5.63;4.47;;;;;;;;;;5123432;27;20069;-71
2023/02/18 03:58:41;;;;;;;4.95;3.97;;;;;;;;;;5123653;27;20483;-70
2023/02/18 04:01:07;;;;;;;4.82;4.03;;;;;;;;;;5125488;27;20045;-71
2023/02/18 04:03:33;;;;;;;5.78;4.68;;;;;;;;;;5125389;27;20019;-71
2023/02/18 04:05:59;;;;;;;5.72;4.10;;;;;;;;;;5123678;27;20030;-71
2023/02/18 04:08:26;;;;;;;7.00;3.90;;;;;;;;;;5125238;27;20016;-70
2023/02/18 04:10:52;;;;;;;5.47;4.18;;;;;;;;;;5118559;27;20133;-71
2023/02/18 04:13:18;;;;;;;9.38;6.70;;;;;;;;;;5124773;27;20098;-70
2023/02/18 04:15:44;;;;;;;10.25;7.70;;;;;;;;;;5124541;27;20522;-70
2023/02/18 04:18:11;;;;;;;9.18;7.93;;;;;;;;;;5130053;27;20117;-72
2023/02/18 04:20:37;;;;;;;10.80;7.60;;;;;;;;;;5121001;28;20060;-70
2023/02/18 04:23:03;;;;;;;11.48;6.85;;;;;;;;;;5122199;27;20676;-70
2023/02/18 04:25:30;;;;;;;6.60;4.80;;;;;;;;;;5116259;27;20031;-70
2023/02/18 04:27:56;;;;;;;4.93;3.97;;;;;;;;;;5102951;27;20092;-70
2023/02/18 04:30:22;;;;;;;10.18;4.07;;;;;;;;;;5119526;27;20081;-71
2023/02/18 04:32:48;;;;;;;5.50;4.25;;;;;;;;;;5109956;27;20019;-70
2023/02/18 04:35:14;;;;;;;6.82;4.20;;;;;;;;;;5128975;27;20057;-73
2023/02/18 04:37:41;;;;;;;5.35;4.10;;;;;;;;;;5120084;27;20468;-71
2023/02/18 04:40:07;;;;;;;5.07;4.20;;;;;;;;;;5125432;27;20777;-71
2023/02/18 04:42:34;;;;;;;5.05;4.20;;;;;;;;;;5121817;27;20027;-74
2023/02/18 04:45:00;;;;;;;5.75;4.15;;;;;;;;;;5124520;27;20023;-71
2023/02/18 04:47:26;;;;;;;7.15;4.00;;;;;;;;;;5119853;27;20024;-71
2023/02/18 04:49:53;;;;;;;7.82;4.38;;;;;;;;;;5122414;27;20054;-71
2023/02/18 04:52:19;;;;;;;6.18;4.57;;;;;;;;;;5124856;27;20493;-73
2023/02/18 04:54:45;;;;;;;5.80;4.35;;;;;;;;;;5122359;27;20470;-71
2023/02/18 04:57:12;;;;;;;6.82;4.22;;;;;;;;;;5115865;27;20031;-72
2023/02/18 04:59:38;;;;;;;7.78;4.00;;;;;;;;;;5112383;27;20445;-70
2023/02/18 05:02:04;;;;;;;5.30;4.20;;;;;;;;;;5127105;27;20092;-71
2023/02/18 05:04:31;;;;;;;5.78;4.45;;;;;;;;;;5111448;27;20030;-72
2023/02/18 05:06:57;;;;;;;4.72;3.97;;;;;;;;;;5125378;27;20083;-71
2023/02/18 05:09:23;;;;;;;4.38;3.58;;;;;;;;;;5124500;27;20033;-71
2023/02/18 05:11:50;;;;;;;4.43;3.70;;;;;;;;;;5123981;27;20019;-71
2023/02/18 05:14:16;;;;;;;5.57;3.70;;;;;;;;;;5121136;27;20844;-71
2023/02/18 05:16:42;;;;;;;5.70;3.88;;;;;;;;;;5123025;27;20050;-71
2023/02/18 05:19:10;;;;;;;9.85;6.88;;;;;;;;;;5127981;27;20040;-71
2023/02/18 05:21:36;;;;;;;5.35;4.53;;;;;;;;;;5121617;27;20019;-70
2023/02/18 05:24:02;;;;;;;5.35;3.92;;;;;;;;;;5112902;27;20051;-71
2023/02/18 05:26:28;;;;;;;8.63;5.40;;;;;;;;;;5126949;27;20518;-71
2023/02/18 05:28:56;;;;;;;9.07;5.97;;;;;;;;;;5106226;27;20448;-71
2023/02/18 05:31:22;;;;;;;7.63;4.53;;;;;;;;;;5128805;27;20479;-70
2023/02/18 05:33:48;;;;;;;5.47;3.47;;;;;;;;;;5129264;27;20027;-71
2023/02/18 05:36:14;;;;;;;5.88;4.13;;;;;;;;;;5108491;27;20032;-71
2023/02/18 05:38:40;;;;;;;5.60;3.90;;;;;;;;;;5126485;27;20026;-71
2023/02/18 05:41:06;;;;;;;11.07;6.90;;;;;;;;;;5126484;27;20070;-71
2023/02/18 05:44:29;;;;;;;9.80;7.65;;;;;;;;;;5116047;27;20015;-71
2023/02/18 05:46:21;;;;;;;11.27;4.70;;;;;;;;;;5122363;27;20031;-71
2023/02/18 05:48:48;;;;;;;5.88;4.50;;;;;;;;;;5123069;27;20642;-71
2023/02/18 05:51:14;;;;;;;4.93;3.60;;;;;;;;;;5121704;27;20102;-72
2023/02/18 05:53:40;;;;;;;4.53;3.67;;;;;;;;;;5117946;27;20062;-71
2023/02/18 05:56:07;;;;;;;5.97;3.72;;;;;;;;;;5120507;27;20032;-71
2023/02/18 05:58:33;;;;;;;4.25;3.67;;;;;;;;;;5131307;27;20023;-71
2023/02/18 06:00:59;;;;;;;7.85;6.38;;;;;;;;;;5117468;27;20489;-71
2023/02/18 06:03:25;;;;;;;6.97;5.30;;;;;;;;;;5126924;27;20035;-70
2023/02/18 06:05:51;;;;;;;5.95;4.43;;;;;;;;;;5127513;27;20026;-70
2023/02/18 06:08:21;;;;;;;6.43;5.57;;;;;;;;;;5103699;27;20038;-70
2023/02/18 06:10:47;;;;;;;8.15;5.75;;;;;;;;;;5112119;27;20026;-71
2023/02/18 06:13:13;;;;;;;9.98;6.50;;;;;;;;;;5121075;27;20030;-71
2023/02/18 06:15:39;;;;;;;7.35;5.28;;;;;;;;;;5123504;27;20114;-70
2023/02/18 06:18:06;;;;;;;5.90;4.47;;;;;;;;;;5117880;27;20058;-70
2023/02/18 06:20:32;;;;;;;6.72;4.90;;;;;;;;;;5122630;27;20031;-71
2023/02/18 06:22:58;;;;;;;7.90;4.78;;;;;;;;;;5121441;27;20050;-72
2023/02/18 06:25:25;;;;;;;6.25;4.50;;;;;;;;;;5128296;27;20027;-71
2023/02/18 06:27:51;;;;;;;7.50;5.00;;;;;;;;;;5123039;27;20080;-75
2023/02/18 06:30:17;;;;;;;5.78;4.72;;;;;;;;;;5122787;27;20038;-70
2023/02/18 06:32:44;;;;;;;5.88;4.50;;;;;;;;;;5122073;27;20482;-70
2023/02/18 06:35:10;;;;;;;6.32;4.45;;;;;;;;;;5127108;27;20475;-71
2023/02/18 06:37:36;;;;;;;10.52;4.53;;;;;;;;;;5124177;27;20046;-71
2023/02/18 06:40:02;;;;;;;9.30;5.75;;;;;;;;;;5122665;27;20068;-71
2023/02/18 06:42:28;;;;;;;7.93;5.18;;;;;;;;;;5122695;27;20073;-71
2023/02/18 06:44:54;;;;;;;11.88;5.78;;;;;;;;;;5118180;27;20034;-75
2023/02/18 06:47:20;;;;;;;11.35;6.20;;;;;;;;;;5115380;27;20023;-75
2023/02/18 06:49:46;;;;;;;16.42;6.53;;;;;;;;;;5112410;27;20035;-72
2023/02/18 06:52:13;;;;;;;9.65;6.75;;;;;;;;;;5120177;27;20027;-72
2023/02/18 06:54:39;;;;;;;9.60;6.60;;;;;;;;;;5124456;27;20019;-77
2023/02/18 06:57:05;;;;;;;8.68;6.40;;;;;;;;;;5119531;27;20043;-72
2023/02/18 06:59:31;;;;;;;9.57;6.75;;;;;;;;;;5124175;27;20054;-74
2023/02/18 07:01:57;;;;;;;13.10;8.40;;;;;;;;;;5124590;27;20031;-79
2023/02/18 07:04:23;;;;;;;10.23;5.88;;;;;;;;;;5121103;27;20086;-73
2023/02/18 07:06:50;;;;;;;7.68;6.00;;;;;;;;;;5115223;27;20036;-77
2023/02/18 07:09:16;;;;;;;9.52;5.90;;;;;;;;;;5111958;27;20022;-74
2023/02/18 07:11:42;;;;;;;8.20;5.80;;;;;;;;;;5119345;27;20094;-74
2023/02/18 07:14:08;;;;;;;8.10;5.65;;;;;;;;;;5116717;27;20026;-73
2023/02/18 07:16:34;;;;;;;8.50;6.25;;;;;;;;;;5121530;27;20045;-74
2023/02/18 07:19:00;;;;;;;10.23;7.05;;;;;;;;;;5120842;27;20144;-74
2023/02/18 07:21:26;;;;;;;9.43;7.10;;;;;;;;;;5119723;27;20035;-73
2023/02/18 07:23:52;;;;;;;10.20;6.88;;;;;;;;;;5120174;27;20616;-73
2023/02/18 07:26:19;;;;;;;15.73;8.02;;;;;;;;;;5130362;27;20127;-73
2023/02/18 07:28:45;;;;;;;12.27;8.57;;;;;;;;;;5121769;27;20030;-75
2023/02/18 07:31:11;;;;;;;18.65;11.35;;;;;;;;;;5123912;27;20037;-73
2023/02/18 07:33:37;;;;;;;20.98;12.88;;;;;;;;;;5123738;27;20019;-73
2023/02/18 07:36:03;;;;;;;20.35;10.73;;;;;;;;;;5120702;27;20064;-73
2023/02/18 07:38:30;;;;;;;15.35;10.00;;;;;;;;;;5117900;27;21247;-73
2023/02/18 07:40:57;;;;;;;13.00;9.05;;;;;;;;;;5128061;27;20027;-74
2023/02/18 07:43:23;;;;;;;13.85;9.27;;;;;;;;;;5118848;27;20374;-73
2023/02/18 07:45:49;;;;;;;11.35;8.68;;;;;;;;;;5121867;27;20487;-75
2023/02/18 07:48:16;;;;;;;15.25;9.80;;;;;;;;;;5127591;27;20023;-73
2023/02/18 07:50:43;;;;;;;18.50;11.20;;;;;;;;;;5124441;27;20032;-74
2023/02/18 07:53:10;;;;;;;13.90;10.63;;;;;;;;;;5126455;27;20038;-74
2023/02/18 07:55:49;;;;;;;10.68;7.15;;;;;;;;;;5124485;27;20049;-73
2023/02/18 07:58:15;;;;;;;8.63;6.47;;;;;;;;;;5117702;27;20546;-73
2023/02/18 08:00:42;;;;;;;7.88;6.38;;;;;;;;;;5122703;27;20031;-73
2023/02/18 08:03:08;;;;;;;6.85;5.22;;;;;;;;;;5120560;27;20051;-73
2023/02/18 08:05:34;;;;;;;5.85;4.28;;;;;;;;;;5114869;27;20023;-75
2023/02/18 08:08:00;;;;;;;7.28;4.38;;;;;;;;;;5118414;27;20016;-73
2023/02/18 08:10:26;;;;;;;8.27;4.20;;;;;;;;;;5125115;27;20022;-75
2023/02/18 08:12:52;;;;;;;5.72;3.92;;;;;;;;;;5117198;27;20632;-75
2023/02/18 08:15:18;;;;;;;5.70;4.05;;;;;;;;;;5113972;27;20061;-74
2023/02/18 08:17:46;;;;;;;5.35;4.20;;;;;;;;;;5121925;27;20141;-73
2023/02/18 08:20:12;;;;;;;5.13;3.88;;;;;;;;;;5129789;27;20621;-73
2023/02/18 08:22:38;;;;;;;10.68;4.50;;;;;;;;;;5124834;27;20163;-73
2023/02/18 08:25:05;;;;;;;7.57;5.25;;;;;;;;;;5119691;27;20015;-74
2023/02/18 08:27:31;;;;;;;10.50;5.47;;;;;;;;;;5123272;27;20030;-73
2023/02/18 08:29:57;;;;;;;7.32;5.20;;;;;;;;;;5120108;27;20027;-75
2023/02/18 08:32:27;;;;;;;8.52;5.68;;;;;;;;;;5121180;27;20020;-73
2023/02/18 08:34:53;;;;;;;7.38;5.68;;;;;;;;;;5119789;27;20014;-74
2023/02/18 08:37:19;;;;;;;10.65;6.20;;;;;;;;;;5117384;27;20035;-73
2023/02/18 08:39:45;;;;;;;8.80;6.13;;;;;;;;;;5117579;27;20023;-73
2023/02/18 08:42:11;;;;;;;7.20;5.93;;;;;;;;;;5122590;27;20521;-73
2023/02/18 08:44:37;;;;;;;6.78;4.80;;;;;;;;;;5117659;27;20020;-73
2023/02/18 08:47:04;;;;;;;5.88;4.25;;;;;;;;;;5124790;27;20034;-75
2023/02/18 08:49:30;;;;;;;4.13;3.28;;;;;;;;;;5117847;27;20023;-73
2023/02/18 08:51:56;;;;;;;3.72;2.97;;;;;;;;;;5124827;27;20593;-73
2023/02/18 08:54:22;;;;;;;4.43;3.40;;;;;;;;;;5122149;27;20023;-73
2023/02/18 08:56:48;;;;;;;5.55;3.22;;;;;;;;;;5125554;27;20031;-73
2023/02/18 08:59:15;;;;;;;5.45;3.85;;;;;;;;;;5120138;27;20031;-73
2023/02/18 09:01:41;;;;;;;6.38;4.68;;;;;;;;;;5124163;27;20113;-73
2023/02/18 09:04:07;;;;;;;5.90;4.10;;;;;;;;;;5122359;27;20102;-73
2023/02/18 09:06:36;;;;;;;4.75;4.18;;;;;;;;;;5120289;27;20054;-73
2023/02/18 09:09:03;;;;;;;5.97;4.00;;;;;;;;;;5122441;27;20029;-73
2023/02/18 09:11:29;;;;;;;4.22;2.95;;;;;;;;;;5129054;27;20031;-72
2023/02/18 09:13:56;;;;;;;4.15;2.88;;;;;;;;;;5106696;27;20070;-73
2023/02/18 09:16:22;;;;;;;3.15;2.65;;;;;;;;;;5128755;27;20035;-73
2023/02/18 09:18:48;;;;;;;4.57;2.53;;;;;;;;;;5131609;27;20146;-73
2023/02/18 09:21:15;;;;;;;3.45;2.33;;;;;;;;;;5123686;27;20414;-74
2023/02/18 09:23:42;;;;;;;5.45;3.25;;;;;;;;;;5122221;27;20537;-73
2023/02/18 09:26:09;;;;;;;13.23;11.82;;;;;;;;;;5126694;27;20034;-74
2023/02/18 09:28:36;;;;;;;7.97;6.13;;;;;;;;;;5125908;27;20055;-73
2023/02/18 09:31:10;;;;;;;4.50;3.25;;;;;;;;;;5120251;27;20025;-73
2023/02/18 09:33:40;;;;;;;4.75;2.83;;;;;;;;;;5126565;27;20015;-73
2023/02/18 09:36:07;;;;;;;4.15;3.25;;;;;;;;;;5116882;27;20023;-73
2023/02/18 09:38:34;;;;;;;3.85;3.28;;;;;;;;;;5125449;27;20723;-72
2023/02/18 09:41:01;;;;;;;4.18;2.63;;;;;;;;;;5123591;27;20029;-72
2023/02/18 09:43:43;;;;;;;4.03;3.20;;;;;;;;;;5122166;27;20023;-72
2023/02/18 09:46:18;;;;;;;6.10;3.03;;;;;;;;;;5101288;27;20513;-73
2023/02/18 09:48:46;;;;;;;3.88;2.95;;;;;;;;;;5123997;27;20952;-72
2023/02/18 09:51:16;;;;;;;3.97;2.92;;;;;;;;;;5126716;27;20015;-73
2023/02/18 09:53:44;;;;;;;4.40;3.05;;;;;;;;;;5122267;27;20024;-73
2023/02/18 09:56:13;;;;;;;4.63;3.60;;;;;;;;;;5116472;27;20020;-74
2023/02/18 09:58:40;;;;;;;5.07;3.50;;;;;;;;;;5122771;27;20023;-73
2023/02/18 10:01:10;;;;;;;5.90;3.75;;;;;;;;;;5118231;27;20071;-73
2023/02/18 10:03:37;;;;;;;3.30;2.60;;;;;;;;;;5123969;27;20435;-74
2023/02/18 10:06:10;;;;;;;3.53;2.80;;;;;;;;;;5119207;27;20027;-73
2023/02/18 10:08:46;;;;;;;3.50;2.63;;;;;;;;;;5128375;27;20024;-73
2023/02/18 10:11:15;;;;;;;8.63;5.93;;;;;;;;;;5121350;27;20027;-73
2023/02/18 10:13:42;;;;;;;5.20;3.33;;;;;;;;;;5122391;27;20098;-72
2023/02/18 10:16:08;;;;;;;6.60;4.40;;;;;;;;;;5116483;27;20147;-73
2023/02/18 10:18:42;;;;;;;3.78;3.10;;;;;;;;;;5123438;27;20545;-73
2023/02/18 10:21:14;;;;;;;3.67;2.83;;;;;;;;;;5120290;27;20018;-72
2023/02/18 10:23:42;;;;;;;4.90;3.80;;;;;;;;;;5123990;27;20024;-73
2023/02/18 10:26:14;;;;;;;3.22;2.65;;;;;;;;;;5124352;27;20019;-73
2023/02/18 10:28:40;;;;;;;4.15;3.35;;;;;;;;;;5115994;27;20402;-72
2023/02/18 10:31:09;;;;;;;8.65;3.75;;;;;;;;;;5119670;27;20038;-73
2023/02/18 10:33:39;;;;;;;5.43;3.60;;;;;;;;;;5121462;27;20026;-72
2023/02/18 10:36:12;;;;;;;9.82;5.85;;;;;;;;;;5125790;27;20035;-72
2023/02/18 10:38:50;;;;;;;5.53;4.40;;;;;;;;;;5125992;27;20445;-73
2023/02/18 10:41:46;;;;;;;8.43;6.28;;;;;;;;;;5123772;27;20025;-73
2023/02/18 10:44:20;;;;;;;9.88;8.15;;;;;;;;;;5013476;27;20030;-73
2023/02/18 10:46:55;;;;;;;8.80;7.35;;;;;;;;;;5121900;27;20106;-72
2023/02/18 10:49:34;;;;;;;5.35;4.50;;;;;;;;;;5124184;27;20031;-72
2023/02/18 10:52:02;;;;;;;5.35;3.08;;;;;;;;;;5120263;27;20023;-73
2023/02/18 10:54:47;;;;;;;4.13;2.67;;;;;;;;;;5126890;27;20027;-73
2023/02/18 10:57:21;;;;;;;3.13;2.38;;;;;;;;;;5120833;27;20047;-72
2023/02/18 11:00:11;;;;;;;5.00;2.90;;;;;;;;;;5117679;27;20967;-73
2023/02/18 11:02:37;;;;;;;3.08;2.55;;;;;;;;;;5116876;27;20024;-73
2023/02/18 11:05:17;;;;;;;3.15;2.50;;;;;;;;;;5126049;27;20392;-73
2023/02/18 11:07:46;;;;;;;4.72;3.22;;;;;;;;;;5123829;27;20514;-73
2023/02/18 11:10:17;;;;;;;5.10;3.00;;;;;;;;;;5126317;27;20127;-73
2023/02/18 11:12:48;;;;;;;5.15;3.42;;;;;;;;;;5123575;27;20028;-74
2023/02/18 11:15:17;;;;;;;3.77;2.90;;;;;;;;;;5122740;27;20392;-73
2023/02/18 11:17:48;;;;;;;3.95;3.20;;;;;;;;;;5123894;27;20043;-73
2023/02/18 11:20:23;;;;;;;2.80;2.40;;;;;;;;;;5120143;27;20634;-73
2023/02/18 11:22:49;;;;;;;3.53;2.50;;;;;;;;;;5119043;27;20079;-73
2023/02/18 11:25:20;;;;;;;4.25;2.53;;;;;;;;;;5103979;27;20436;-74
2023/02/18 11:27:56;;;;;;;3.67;2.67;;;;;;;;;;5114590;27;20542;-73
2023/02/18 11:30:22;;;;;;;6.10;3.22;;;;;;;;;;5119187;27;20015;-73
2023/02/18 11:32:49;;;;;;;4.70;3.45;;;;;;;;;;5118185;27;20011;-73
2023/02/18 11:35:21;;;;;;;4.03;2.70;;;;;;;;;;5127039;27;20037;-74
2023/02/18 11:37:47;;;;;;;2.63;2.30;;;;;;;;;;5124459;27;20051;-75
2023/02/18 11:40:21;;;;;;;5.50;2.90;;;;;;;;;;5108392;27;20600;-72
2023/02/18 11:42:47;;;;;;;4.13;2.80;;;;;;;;;;5125516;27;20030;-73
2023/02/18 11:45:32;;;;;;;5.47;2.70;;;;;;;;;;5104045;27;20035;-73
2023/02/18 11:48:06;;;;;;;5.30;2.72;;;;;;;;;;5119723;27;20032;-73
2023/02/18 11:50:33;;;;;;;3.38;2.33;;;;;;;;;;5114287;27;20029;-73
2023/02/18 11:52:59;;;;;;;3.40;2.40;;;;;;;;;;5117931;27;20079;-73
2023/02/18 11:55:29;;;;;;;3.00;2.33;;;;;;;;;;5116348;27;20011;-73
2023/02/18 11:57:56;;;;;;;4.13;2.58;;;;;;;;;;5092477;27;20361;-74
2023/02/18 12:00:22;;;;;;;4.07;2.80;;;;;;;;;;5124114;27;20504;-73
2023/02/18 12:02:49;;;;;;;3.75;2.53;;;;;;;;;;5122325;27;20041;-73
2023/02/18 12:05:23;;;;;;;3.63;2.97;;;;;;;;;;5123103;27;20579;-75
2023/02/18 12:07:52;;;;;;;2.80;2.50;;;;;;;;;;5118178;27;20032;-73
2023/02/18 12:10:32;;;;;;;4.20;2.42;;;;;;;;;;5123117;27;20100;-75
2023/02/18 12:13:10;;;;;;;4.10;2.40;;;;;;;;;;5121489;27;20024;-73
2023/02/18 12:15:53;;;;;;;3.90;2.30;;;;;;;;;;5113656;27;20035;-73
2023/02/18 12:18:39;;;;;;;3.03;2.70;;;;;;;;;;5117420;27;20313;-73
2023/02/18 12:21:11;;;;;;;3.05;2.20;;;;;;;;;;5067332;27;20064;-74
2023/02/18 12:23:45;;;;;;;3.55;2.42;;;;;;;;;;5123779;27;20037;-73
2023/02/18 12:26:22;;;;;;;4.18;2.38;;;;;;;;;;5106641;27;20015;-73
2023/02/18 12:28:55;;;;;;;5.32;2.30;;;;;;;;;;5123813;27;20023;-73
2023/02/18 12:31:23;;;;;;;6.20;2.40;;;;;;;;;;5121584;27;20291;-73
2023/02/18 12:34:09;;;;;;;3.42;2.58;;;;;;;;;;5125708;27;20015;-73
2023/02/18 12:36:54;;;;;;;3.58;2.50;;;;;;;;;;5127189;27;20027;-73
2023/02/18 12:39:20;;;;;;;3.35;2.25;;;;;;;;;;5125677;27;20030;-73
2023/02/18 12:42:01;;;;;;;4.05;2.55;;;;;;;;;;5127320;27;20023;-73
2023/02/18 12:44:27;;;;;;;3.78;2.47;;;;;;;;;;5122795;27;20090;-73
2023/02/18 12:46:56;;;;;;;2.70;2.22;;;;;;;;;;5123237;27;20023;-75
2023/02/18 12:49:41;;;;;;;2.70;2.22;;;;;;;;;;5100218;27;20029;-73
2023/02/18 12:52:07;;;;;;;3.15;2.38;;;;;;;;;;5133327;27;20042;-72
2023/02/18 12:54:39;;;;;;;3.20;2.90;;;;;;;;;;5133135;27;20023;-73
2023/02/18 12:57:05;;;;;;;;;;;;;;;;;;5124766;27;20039;-73
2023/02/18 12:59:50;;;;;;;3.28;2.30;;;;;;;;;;5120917;27;19911;-73
2023/02/18 13:02:25;;;;;;;4.78;2.63;;;;;;;;;;5128963;27;20030;-73
2023/02/18 13:05:03;;;;;;;2.70;2.33;;;;;;;;;;5132328;27;20018;-73
2023/02/18 13:07:36;;;;;;;3.88;2.40;;;;;;;;;;5128697;27;20034;-73
2023/02/18 13:10:05;;;;;;;3.45;2.20;;;;;;;;;;5104220;27;20033;-73
2023/02/18 13:12:31;;;;;;;3.53;2.70;;;;;;;;;;5130647;27;20041;-73
2023/02/18 13:15:02;;;;;;;4.70;2.85;;;;;;;;;;5124466;27;20025;-72
2023/02/18 13:17:31;;;;;;;3.60;2.55;;;;;;;;;;5121199;27;20051;-72
2023/02/18 13:20:00;;;;;;;3.90;2.60;;;;;;;;;;5124141;27;20756;-73
2023/02/18 13:22:28;;;;;;;3.20;2.40;;;;;;;;;;5127690;27;20395;-74
2023/02/18 13:24:55;;;;;;;3.85;2.78;;;;;;;;;;5110106;27;20027;-73
2023/02/18 13:27:25;;;;;;;3.30;2.28;;;;;;;;;;5128320;27;20024;-75
2023/02/18 13:30:03;;;;;;;4.07;2.22;;;;;;;;;;5129460;27;20026;-75
2023/02/18 13:32:34;;;;;;;3.60;2.30;;;;;;;;;;5125786;27;20625;-74
2023/02/18 13:35:12;;;;;;;3.13;2.53;;;;;;;;;;5121647;27;20114;-72
2023/02/18 13:37:42;;;;;;;3.30;2.47;;;;;;;;;;5126964;27;20118;-72
2023/02/18 13:40:28;;;;;;;2.90;2.47;;;;;;;;;;5115762;27;20048;-73
2023/02/18 13:42:55;;;;;;;3.38;2.38;;;;;;;;;;5118938;27;20035;-75
2023/02/18 13:45:28;;;;;;;2.90;2.30;;;;;;;;;;5097587;27;20049;-74
2023/02/18 13:47:55;;;;;;;3.67;2.40;;;;;;;;;;5099828;27;20084;-75
2023/02/18 13:50:21;;;;;;;3.25;2.50;;;;;;;;;;5100176;27;20019;-76
2023/02/18 13:52:48;;;;;;;3.58;2.15;;;;;;;;;;5116098;27;20027;-76
2023/02/18 13:55:40;;;;;;;3.67;2.47;;;;;;;;;;5118853;27;20027;-77
2023/02/18 13:58:15;;;;;;;3.03;2.03;;;;;;;;;;5088094;27;20123;-76
2023/02/18 14:00:46;;;;;;;2.88;2.20;;;;;;;;;;5116841;27;20038;-75
2023/02/18 14:03:38;;;;;;;4.88;2.10;;;;;;;;;;5113983;27;20027;-74
2023/02/18 14:06:18;;;;;;;3.70;2.55;;;;;;;;;;5115057;27;20035;-75
2023/02/18 14:08:45;;;;;;;2.75;1.90;;;;;;;;;;5108039;27;20024;-77
2023/02/18 14:11:11;;;;;;;2.95;2.17;;;;;;;;;;5104789;27;20469;-74
2023/02/18 14:13:46;;;;;;;2.70;2.10;;;;;;;;;;5122223;27;20435;-75
2023/02/18 14:16:13;;;;;;;3.75;2.70;;;;;;;;;;5113501;27;20578;-73
2023/02/18 14:18:39;;;;;;;5.15;2.65;;;;;;;;;;5120931;27;20026;-74
2023/02/18 14:21:25;;;;;;;3.85;2.63;;;;;;;;;;5117294;27;20023;-75
2023/02/18 14:23:51;;;;;;;4.55;2.55;;;;;;;;;;5107109;27;20114;-74
2023/02/18 14:26:23;;;;;;;16.83;4.68;;;;;;;;;;5115311;27;20087;-76
2023/02/18 14:28:57;;;;;;;4.60;2.80;;;;;;;;;;5121944;27;20027;-73
2023/02/18 14:31:47;;;;;;;11.10;3.00;;;;;;;;;;5120403;27;20038;-75
2023/02/18 14:34:20;;;;;;;2.72;2.30;;;;;;;;;;5117925;27;20102;-74
2023/02/18 14:37:05;;;;;;;7.15;2.50;;;;;;;;;;5115437;27;20042;-73
2023/02/18 14:39:50;;;;;;;4.07;2.30;;;;;;;;;;5117564;27;20529;-73
2023/02/18 14:45:38;;;;;;;4.03;2.78;;;;;;;;;;4817628;28;20097;-82
2023/02/18 14:48:23;;;;;;;3.15;2.20;;;;;;;;;;5091980;27;20028;-82
2023/02/18 14:50:50;;;;;;;3.38;2.17;;;;;;;;;;5086397;28;20027;-83
2023/02/18 14:53:24;;;;;;;3.85;2.72;;;;;;;;;;5090424;28;20035;-83
2023/02/18 14:55:53;;;;;;;2.83;2.45;;;;;;;;;;5090635;28;20027;-83
2023/02/18 14:58:29;;;;;;;3.88;2.20;;;;;;;;;;5088638;28;20088;-83